Time;durP1;ratioP1;P1;durP2;ratioP2;P2;SDS_P1;SDS_P2;PMS_P1;PMS_P2;Temp;Humidity;BMP_temperature;BMP_pressure;BME280_temperature;BME280_humidity;BME280_pressure;Samples;Min_cycle;Max_cycle;Signal;HPM_P1;HPM_P2
2024/03/12 06:00:44;;;;;;;6.07;3.20;;;;;;;;;;5918622;23;20512;-77
2024/03/12 06:03:10;;;;;;;4.47;4.00;;;;;;;;;;5014029;28;20418;-77
2024/03/12 06:05:36;;;;;;;5.47;3.77;;;;;;;;;;5014551;28;20429;-77
2024/03/12 06:08:03;;;;;;;11.00;4.17;;;;;;;;;;5014004;28;20437;-77
2024/03/12 06:10:28;;;;;;;5.93;3.70;;;;;;;;;;5013894;28;20422;-78
2024/03/12 06:12:54;;;;;;;5.63;3.80;;;;;;;;;;5014092;28;20414;-78
2024/03/12 06:17:49;;;;;;;5.37;3.33;;;;;;;;;;4993340;28;20475;-69
2024/03/12 06:20:15;;;;;;;6.77;4.07;;;;;;;;;;4994713;28;20410;-70
2024/03/12 06:22:44;;;;;;;6.90;4.70;;;;;;;;;;4993327;28;20411;-68
2024/03/12 06:25:10;;;;;;;8.90;4.70;;;;;;;;;;4994144;28;20454;-71
2024/03/12 06:27:39;;;;;;;6.10;3.87;;;;;;;;;;4994621;28;20407;-70
2024/03/12 06:30:06;;;;;;;5.83;3.87;;;;;;;;;;4993580;28;20427;-71
2024/03/12 06:32:32;;;;;;;4.50;3.50;;;;;;;;;;4995399;28;20816;-70
2024/03/12 06:34:58;;;;;;;7.90;4.17;;;;;;;;;;5004106;28;20414;-73
2024/03/12 06:37:27;;;;;;;5.77;3.90;;;;;;;;;;5007368;28;20442;-74
2024/03/12 06:39:53;;;;;;;3.90;3.60;;;;;;;;;;5001588;28;20425;-72
2024/03/12 06:42:25;;;;;;;10.63;3.67;;;;;;;;;;4997563;28;20509;-70
2024/03/12 06:44:52;;;;;;;4.70;3.83;;;;;;;;;;5000332;28;20467;-71
2024/03/12 06:47:22;;;;;;;10.30;4.47;;;;;;;;;;5004051;28;20438;-70
2024/03/12 06:49:48;;;;;;;7.83;4.43;;;;;;;;;;4994173;28;20774;-69
2024/03/12 06:52:18;;;;;;;5.77;4.60;;;;;;;;;;5006211;28;20423;-69
2024/03/12 06:54:44;;;;;;;5.93;3.77;;;;;;;;;;5005017;28;20421;-71
2024/03/12 06:57:11;;;;;;;6.73;4.17;;;;;;;;;;5010765;28;20945;-69
2024/03/12 06:59:37;;;;;;;6.73;3.43;;;;;;;;;;4993749;28;20459;-71
2024/03/12 07:02:04;;;;;;;3.73;3.20;;;;;;;;;;4996966;28;20403;-70
2024/03/12 07:04:43;;;;;;;6.20;3.60;;;;;;;;;;5007190;28;20467;-70
2024/03/12 07:07:10;;;;;;;4.40;3.00;;;;;;;;;;4994747;28;20549;-69
2024/03/12 07:09:40;;;;;;;5.03;3.77;;;;;;;;;;4991901;28;20423;-71
2024/03/12 07:12:07;;;;;;;4.63;3.23;;;;;;;;;;5007925;28;20421;-70
2024/03/12 07:14:40;;;;;;;5.00;3.60;;;;;;;;;;4980805;28;20458;-71
2024/03/12 07:17:07;;;;;;;5.40;3.97;;;;;;;;;;4993189;28;20556;-71
2024/03/12 07:19:34;;;;;;;5.10;3.60;;;;;;;;;;4992093;28;20811;-72
2024/03/12 07:22:00;;;;;;;5.40;3.57;;;;;;;;;;4994282;28;20430;-72
2024/03/12 07:24:26;;;;;;;7.60;4.77;;;;;;;;;;4993177;28;20589;-72
2024/03/12 07:26:53;;;;;;;5.07;3.23;;;;;;;;;;4992572;28;20949;-71
2024/03/12 07:29:19;;;;;;;4.90;3.13;;;;;;;;;;4993892;28;20859;-73
2024/03/12 07:31:45;;;;;;;4.83;3.60;;;;;;;;;;4993669;28;20474;-71
2024/03/12 07:34:11;;;;;;;7.13;3.30;;;;;;;;;;4993831;28;20415;-71
2024/03/12 07:36:37;;;;;;;7.23;3.40;;;;;;;;;;4992887;28;20533;-70
2024/03/12 07:39:19;;;;;;;5.37;3.30;;;;;;;;;;4993588;28;20457;-70
2024/03/12 07:41:45;;;;;;;5.63;3.83;;;;;;;;;;4993849;28;20387;-75
2024/03/12 07:44:11;;;;;;;7.43;3.37;;;;;;;;;;4994276;28;20474;-74
2024/03/12 07:46:37;;;;;;;4.90;2.90;;;;;;;;;;4995753;28;20430;-73
2024/03/12 07:49:03;;;;;;;4.73;3.40;;;;;;;;;;4994110;28;21152;-71
2024/03/12 07:51:30;;;;;;;5.90;3.70;;;;;;;;;;4995554;28;20415;-73
2024/03/12 07:53:59;;;;;;;6.17;3.77;;;;;;;;;;4999750;28;20853;-71
2024/03/12 07:56:26;;;;;;;9.10;3.30;;;;;;;;;;5000056;28;21025;-72
2024/03/12 07:58:52;;;;;;;5.40;3.10;;;;;;;;;;4997047;28;20426;-73
2024/03/12 08:01:18;;;;;;;5.03;3.93;;;;;;;;;;4994619;28;20411;-70
2024/03/12 08:03:44;;;;;;;6.50;3.50;;;;;;;;;;4995168;28;20462;-72
2024/03/12 08:06:10;;;;;;;5.07;3.87;;;;;;;;;;4981830;28;20444;-72
2024/03/12 08:08:36;;;;;;;3.60;2.90;;;;;;;;;;4992658;28;20426;-72
2024/03/12 08:11:04;;;;;;;5.23;3.70;;;;;;;;;;4992466;28;20430;-72
2024/03/12 08:13:30;;;;;;;3.80;2.63;;;;;;;;;;4993407;28;20426;-71
2024/03/12 08:15:56;;;;;;;5.27;2.73;;;;;;;;;;4996219;28;20561;-72
2024/03/12 08:18:22;;;;;;;2.97;2.40;;;;;;;;;;4994416;28;20473;-71
2024/03/12 08:20:48;;;;;;;4.80;2.50;;;;;;;;;;5008125;28;20470;-70
2024/03/12 08:23:14;;;;;;;8.17;2.17;;;;;;;;;;4998516;28;20422;-70
2024/03/12 08:25:41;;;;;;;2.90;2.03;;;;;;;;;;5004906;28;20446;-72
2024/03/12 08:28:09;;;;;;;6.23;3.30;;;;;;;;;;5006650;28;20436;-70
2024/03/12 08:30:35;;;;;;;2.57;2.10;;;;;;;;;;4997797;28;20425;-71
2024/03/12 08:33:03;;;;;;;8.83;2.97;;;;;;;;;;4996978;28;20517;-70
2024/03/12 08:35:29;;;;;;;2.50;1.93;;;;;;;;;;4998098;28;20439;-73
2024/03/12 08:37:55;;;;;;;3.90;1.90;;;;;;;;;;5002430;28;20428;-71
2024/03/12 08:40:21;;;;;;;1.97;1.80;;;;;;;;;;5008044;28;20460;-72
2024/03/12 08:42:47;;;;;;;3.37;2.33;;;;;;;;;;5006743;28;20425;-72
2024/03/12 08:45:14;;;;;;;4.10;1.70;;;;;;;;;;5015368;28;20469;-68
2024/03/12 08:47:40;;;;;;;3.17;1.80;;;;;;;;;;5012411;28;20444;-71
2024/03/12 08:50:07;;;;;;;2.37;2.20;;;;;;;;;;5009518;28;20872;-74
2024/03/12 08:52:35;;;;;;;3.07;1.80;;;;;;;;;;5012968;28;20417;-73
2024/03/12 08:55:01;;;;;;;5.03;1.97;;;;;;;;;;5001871;28;20425;-73
2024/03/12 08:57:27;;;;;;;3.53;1.87;;;;;;;;;;5003300;28;20805;-70
2024/03/12 08:59:53;;;;;;;1.80;1.80;;;;;;;;;;4998827;28;20426;-72
2024/03/12 09:02:19;;;;;;;5.30;2.10;;;;;;;;;;4998348;28;20514;-70
2024/03/12 09:04:45;;;;;;;3.87;2.33;;;;;;;;;;5002235;28;20544;-72
2024/03/12 09:07:12;;;;;;;2.50;2.00;;;;;;;;;;5003069;28;20494;-72
2024/03/12 09:09:39;;;;;;;5.20;2.10;;;;;;;;;;4999175;28;20419;-69
2024/03/12 09:12:06;;;;;;;4.83;1.90;;;;;;;;;;4995169;28;20462;-71
2024/03/12 09:14:33;;;;;;;2.60;1.77;;;;;;;;;;4992440;28;20509;-74
2024/03/12 09:16:59;;;;;;;4.93;2.57;;;;;;;;;;4996618;28;20877;-71
2024/03/12 09:19:25;;;;;;;2.77;1.70;;;;;;;;;;5000793;28;20472;-72
2024/03/12 09:21:51;;;;;;;2.73;1.87;;;;;;;;;;5015503;28;20418;-70
2024/03/12 09:24:18;;;;;;;4.10;2.27;;;;;;;;;;4996059;28;20501;-73
2024/03/12 09:26:44;;;;;;;6.30;2.50;;;;;;;;;;4997880;28;21065;-73
2024/03/12 09:29:12;;;;;;;3.30;2.30;;;;;;;;;;5030346;28;20420;-72
2024/03/12 09:31:41;;;;;;;4.63;2.10;;;;;;;;;;5032061;28;20521;-72
2024/03/12 09:34:07;;;;;;;3.50;2.13;;;;;;;;;;5028156;28;20453;-70
2024/03/12 09:36:33;;;;;;;5.37;2.70;;;;;;;;;;5005215;28;20930;-72
2024/03/12 09:38:59;;;;;;;8.83;2.80;;;;;;;;;;4997503;28;20428;-71
2024/03/12 09:41:27;;;;;;;7.23;3.87;;;;;;;;;;4976729;28;20430;-70
2024/03/12 09:43:53;;;;;;;9.73;3.50;;;;;;;;;;4981195;28;20551;-70
2024/03/12 09:46:20;;;;;;;10.80;3.50;;;;;;;;;;5001598;28;20482;-71
2024/03/12 09:48:47;;;;;;;5.77;3.37;;;;;;;;;;5005254;28;20412;-72
2024/03/12 09:51:14;;;;;;;6.47;3.37;;;;;;;;;;5011256;28;20902;-71
2024/03/12 09:53:41;;;;;;;5.60;2.50;;;;;;;;;;5022345;28;20418;-70
2024/03/12 09:56:07;;;;;;;5.63;3.13;;;;;;;;;;5007915;28;20557;-70
2024/03/12 09:58:33;;;;;;;5.80;3.23;;;;;;;;;;4995676;28;20419;-73
2024/03/12 10:01:02;;;;;;;4.97;2.70;;;;;;;;;;4995117;28;20415;-71
2024/03/12 10:03:29;;;;;;;7.37;3.60;;;;;;;;;;4995886;28;20469;-70
2024/03/12 10:05:55;;;;;;;5.23;3.10;;;;;;;;;;4993935;28;20443;-69
2024/03/12 10:08:28;;;;;;;6.40;3.47;;;;;;;;;;4996795;28;21002;-71
2024/03/12 10:10:54;;;;;;;6.03;3.50;;;;;;;;;;5010362;28;20414;-74
2024/03/12 10:13:20;;;;;;;7.20;3.60;;;;;;;;;;5003090;28;20415;-72
2024/03/12 10:15:56;;;;;;;20.67;3.50;;;;;;;;;;5008218;28;20486;-72
2024/03/12 10:18:22;;;;;;;7.60;3.50;;;;;;;;;;5002859;28;20434;-72
2024/03/12 10:20:56;;;;;;;5.80;3.10;;;;;;;;;;5004785;28;20442;-71
2024/03/12 10:23:36;;;;;;;5.67;2.43;;;;;;;;;;4994998;28;20845;-74
2024/03/12 10:26:10;;;;;;;4.63;2.77;;;;;;;;;;4995120;28;20465;-69
2024/03/12 10:28:39;;;;;;;4.70;2.47;;;;;;;;;;4995235;28;20406;-71
2024/03/12 10:31:08;;;;;;;4.77;2.73;;;;;;;;;;4995311;28;20461;-71
2024/03/12 10:33:34;;;;;;;4.23;2.60;;;;;;;;;;4995007;28;20415;-71
2024/03/12 10:36:01;;;;;;;5.90;3.30;;;;;;;;;;4993344;28;20515;-73
2024/03/12 10:38:28;;;;;;;4.30;2.33;;;;;;;;;;4993867;28;20925;-70
2024/03/12 10:40:57;;;;;;;5.60;2.83;;;;;;;;;;4994604;28;20497;-70
2024/03/12 10:43:26;;;;;;;5.43;3.07;;;;;;;;;;4993181;28;20422;-69
2024/03/12 10:45:56;;;;;;;3.07;2.57;;;;;;;;;;4992592;28;20945;-70
2024/03/12 10:48:23;;;;;;;7.77;3.10;;;;;;;;;;4994311;28;20440;-71
2024/03/12 10:50:49;;;;;;;13.73;2.90;;;;;;;;;;4994143;28;20894;-70
2024/03/12 10:53:16;;;;;;;6.00;2.90;;;;;;;;;;4993217;28;20793;-69
2024/03/12 10:55:42;;;;;;;2.20;1.83;;;;;;;;;;4994213;28;20976;-71
2024/03/12 10:58:09;;;;;;;7.97;3.23;;;;;;;;;;4994107;28;20415;-70
2024/03/12 11:00:39;;;;;;;5.53;3.00;;;;;;;;;;4993875;28;20411;-70
2024/03/12 11:03:06;;;;;;;3.33;2.33;;;;;;;;;;4994090;28;20447;-71
2024/03/12 11:05:32;;;;;;;6.67;2.80;;;;;;;;;;4994747;28;20797;-71
2024/03/12 11:07:59;;;;;;;3.53;2.10;;;;;;;;;;4994463;28;20490;-69
2024/03/12 11:10:27;;;;;;;2.63;1.97;;;;;;;;;;4994323;28;20449;-71
2024/03/12 11:12:54;;;;;;;3.70;2.43;;;;;;;;;;4994271;28;20775;-70
2024/03/12 11:15:20;;;;;;;3.83;1.90;;;;;;;;;;4987704;28;20873;-71
2024/03/12 11:17:51;;;;;;;3.53;2.30;;;;;;;;;;4984873;28;20459;-74
2024/03/12 11:20:17;;;;;;;4.40;2.17;;;;;;;;;;4993153;28;20408;-73
2024/03/12 11:22:44;;;;;;;2.50;1.90;;;;;;;;;;4993559;28;20994;-70
2024/03/12 11:25:14;;;;;;;2.90;1.90;;;;;;;;;;4992663;28;20494;-70
2024/03/12 11:27:41;;;;;;;3.87;2.00;;;;;;;;;;4993246;28;20850;-70
2024/03/12 11:30:14;;;;;;;7.20;3.23;;;;;;;;;;4993729;28;20485;-69
2024/03/12 11:32:44;;;;;;;6.30;2.70;;;;;;;;;;4994062;28;20411;-71
2024/03/12 11:35:23;;;;;;;5.00;2.77;;;;;;;;;;4993452;28;20410;-70
2024/03/12 11:37:58;;;;;;;5.83;2.87;;;;;;;;;;4992389;28;20417;-71
2024/03/12 11:40:28;;;;;;;5.43;3.30;;;;;;;;;;4993585;28;20418;-71
2024/03/12 11:42:55;;;;;;;6.20;3.57;;;;;;;;;;4993643;28;21046;-71
2024/03/12 11:45:39;;;;;;;5.20;2.60;;;;;;;;;;4993277;28;20482;-72
2024/03/12 11:48:06;;;;;;;4.73;2.80;;;;;;;;;;4992267;28;20410;-70
2024/03/12 11:50:33;;;;;;;5.17;2.97;;;;;;;;;;4993546;28;20411;-69
2024/03/12 11:53:19;;;;;;;5.73;2.87;;;;;;;;;;4993541;28;20406;-74
2024/03/12 11:56:23;;;;;;;6.27;3.37;;;;;;;;;;4991961;28;20441;-70
2024/03/12 11:58:51;;;;;;;4.20;2.50;;;;;;;;;;4934013;29;20512;-69
2024/03/12 12:01:18;;;;;;;5.50;3.03;;;;;;;;;;4987152;28;20498;-69
2024/03/12 12:03:44;;;;;;;6.50;2.93;;;;;;;;;;5000542;28;20961;-71
2024/03/12 12:06:11;;;;;;;6.93;3.30;;;;;;;;;;4992351;28;20837;-70
2024/03/12 12:08:37;;;;;;;3.50;2.43;;;;;;;;;;4993606;28;20412;-72
2024/03/12 12:11:05;;;;;;;9.20;3.60;;;;;;;;;;5003699;28;20418;-72
2024/03/12 12:13:32;;;;;;;8.77;4.60;;;;;;;;;;5010646;28;20422;-72
2024/03/12 12:16:01;;;;;;;10.87;5.27;;;;;;;;;;5020958;23;20544;-74
2024/03/12 12:18:31;;;;;;;14.30;6.43;;;;;;;;;;4993125;28;20430;-76
2024/03/12 12:20:58;;;;;;;16.53;7.73;;;;;;;;;;4992701;28;20403;-75
2024/03/12 12:23:27;;;;;;;18.67;8.67;;;;;;;;;;4992558;28;20407;-74
2024/03/12 12:25:54;;;;;;;18.77;7.73;;;;;;;;;;4992193;28;20933;-74
2024/03/12 12:28:20;;;;;;;15.73;7.27;;;;;;;;;;4993412;28;20442;-74
2024/03/12 12:30:48;;;;;;;23.10;9.33;;;;;;;;;;4993186;28;20422;-74
2024/03/12 12:33:16;;;;;;;23.33;10.10;;;;;;;;;;4993568;28;20411;-74
2024/03/12 12:35:43;;;;;;;20.07;8.90;;;;;;;;;;4992848;28;20412;-75
2024/03/12 12:38:10;;;;;;;18.40;9.97;;;;;;;;;;4992408;28;20779;-74
2024/03/12 12:40:37;;;;;;;25.33;9.13;;;;;;;;;;4992418;28;20823;-73
2024/03/12 12:43:06;;;;;;;19.67;9.40;;;;;;;;;;4992301;28;20411;-74
2024/03/12 12:45:33;;;;;;;16.23;8.70;;;;;;;;;;4991659;28;20876;-74
2024/03/12 12:48:04;;;;;;;19.80;8.77;;;;;;;;;;4992158;28;20498;-74
2024/03/12 12:50:32;;;;;;;20.27;9.20;;;;;;;;;;4992338;28;20403;-75
2024/03/12 12:53:01;;;;;;;13.73;7.27;;;;;;;;;;4992306;28;20498;-75
2024/03/12 12:55:27;;;;;;;20.50;8.00;;;;;;;;;;4992077;28;20411;-74
2024/03/12 12:58:03;;;;;;;15.70;8.23;;;;;;;;;;4992153;28;20426;-74
2024/03/12 13:00:32;;;;;;;16.00;7.70;;;;;;;;;;4993474;28;20418;-75
2024/03/12 13:03:12;;;;;;;15.63;7.40;;;;;;;;;;4991964;28;20419;-74
2024/03/12 13:05:41;;;;;;;18.17;8.53;;;;;;;;;;4991702;28;20473;-75
2024/03/12 13:08:32;;;;;;;24.93;10.27;;;;;;;;;;4994865;28;20405;-75
2024/03/12 13:11:10;;;;;;;19.93;9.27;;;;;;;;;;4995907;28;20383;-74
2024/03/12 13:13:38;;;;;;;16.40;7.50;;;;;;;;;;4995831;28;20403;-75
2024/03/12 13:16:14;;;;;;;21.03;8.10;;;;;;;;;;4971416;28;20509;-75
2024/03/12 13:18:43;;;;;;;17.77;8.33;;;;;;;;;;4993527;28;20406;-75
2024/03/12 13:21:10;;;;;;;17.17;8.60;;;;;;;;;;4994780;28;21169;-75
2024/03/12 13:23:36;;;;;;;23.93;10.83;;;;;;;;;;4995254;28;20491;-75
2024/03/12 13:26:03;;;;;;;24.20;11.37;;;;;;;;;;4994654;28;20755;-75
2024/03/12 13:28:29;;;;;;;26.50;11.33;;;;;;;;;;4995347;28;20759;-77
2024/03/12 13:30:56;;;;;;;26.10;12.90;;;;;;;;;;4995616;28;20410;-74
2024/03/12 13:33:22;;;;;;;29.10;12.37;;;;;;;;;;4995271;28;20961;-75
2024/03/12 13:35:48;;;;;;;31.77;13.60;;;;;;;;;;4995144;28;20430;-74
2024/03/12 13:38:14;;;;;;;26.77;12.23;;;;;;;;;;4995206;28;20938;-74
2024/03/12 13:40:42;;;;;;;33.83;13.70;;;;;;;;;;4995094;28;20411;-75
2024/03/12 13:43:10;;;;;;;28.20;12.47;;;;;;;;;;4995684;28;20415;-74
2024/03/12 13:45:38;;;;;;;36.87;15.87;;;;;;;;;;4994950;28;20503;-74
2024/03/12 13:48:04;;;;;;;35.03;14.70;;;;;;;;;;4995296;28;20415;-75
2024/03/12 13:50:30;;;;;;;27.47;12.33;;;;;;;;;;4994994;28;20517;-75
2024/03/12 13:52:56;;;;;;;32.67;14.50;;;;;;;;;;4995031;28;20550;-75
2024/03/12 13:55:22;;;;;;;30.40;12.70;;;;;;;;;;4994655;28;20894;-75
2024/03/12 13:57:48;;;;;;;38.20;16.40;;;;;;;;;;4994733;28;20437;-75
2024/03/12 14:00:16;;;;;;;33.17;15.47;;;;;;;;;;4994711;28;20852;-74
2024/03/12 14:02:42;;;;;;;33.13;14.83;;;;;;;;;;4994687;28;20816;-74
2024/03/12 14:05:08;;;;;;;33.73;14.47;;;;;;;;;;4994221;28;20466;-75
2024/03/12 14:07:37;;;;;;;25.30;13.60;;;;;;;;;;4994581;28;20794;-75
2024/03/12 14:10:07;;;;;;;36.73;14.47;;;;;;;;;;4994631;28;20407;-75
2024/03/12 14:12:35;;;;;;;38.43;14.60;;;;;;;;;;4994352;28;20925;-76
2024/03/12 14:15:01;;;;;;;32.83;14.07;;;;;;;;;;4994113;28;20418;-75
2024/03/12 14:17:28;;;;;;;36.30;14.90;;;;;;;;;;4994124;28;20949;-74
2024/03/12 14:19:55;;;;;;;33.07;14.90;;;;;;;;;;4994336;28;20407;-74
2024/03/12 14:22:21;;;;;;;36.27;15.20;;;;;;;;;;4994056;28;20418;-75
2024/03/12 14:24:46;;;;;;;35.80;16.50;;;;;;;;;;4993784;28;20466;-74
2024/03/12 14:27:16;;;;;;;36.67;16.30;;;;;;;;;;4993859;28;20431;-74
2024/03/12 14:29:44;;;;;;;25.10;11.60;;;;;;;;;;4976752;28;20800;-75
2024/03/12 14:32:10;;;;;;;27.47;12.10;;;;;;;;;;4993991;28;20482;-74
2024/03/12 14:34:37;;;;;;;29.20;12.57;;;;;;;;;;4994100;28;20419;-74
2024/03/12 14:37:03;;;;;;;32.43;13.47;;;;;;;;;;4993921;28;20452;-75
2024/03/12 14:39:29;;;;;;;24.20;13.00;;;;;;;;;;4993958;28;20958;-74
2024/03/12 14:41:55;;;;;;;34.90;12.67;;;;;;;;;;4994372;28;20609;-74
2024/03/12 14:44:21;;;;;;;34.60;12.00;;;;;;;;;;4994528;28;20454;-76
2024/03/12 14:46:47;;;;;;;21.77;11.00;;;;;;;;;;4993631;28;20430;-74
2024/03/12 14:49:13;;;;;;;25.53;11.60;;;;;;;;;;4993960;28;20411;-73
2024/03/12 14:51:40;;;;;;;27.47;10.80;;;;;;;;;;4993671;28;20868;-74
2024/03/12 14:54:07;;;;;;;24.33;10.47;;;;;;;;;;4993661;28;20414;-76
2024/03/12 14:56:33;;;;;;;21.83;9.90;;;;;;;;;;4993823;28;20514;-74
2024/03/12 14:58:59;;;;;;;22.90;9.63;;;;;;;;;;4993330;28;20414;-73
2024/03/12 15:01:25;;;;;;;24.43;10.50;;;;;;;;;;4993406;28;20419;-74
2024/03/12 15:03:51;;;;;;;20.00;9.73;;;;;;;;;;4993379;28;20473;-74
2024/03/12 15:06:18;;;;;;;25.17;10.80;;;;;;;;;;4992953;28;20427;-74
2024/03/12 15:08:44;;;;;;;23.10;10.20;;;;;;;;;;4993646;28;20768;-76
2024/03/12 15:11:11;;;;;;;22.23;10.07;;;;;;;;;;4993308;28;20909;-76
2024/03/12 15:13:37;;;;;;;33.83;12.37;;;;;;;;;;4993370;28;20426;-76
2024/03/12 15:16:03;;;;;;;26.93;11.90;;;;;;;;;;4991109;28;20473;-74
2024/03/12 15:18:30;;;;;;;30.03;12.20;;;;;;;;;;4992593;28;20481;-75
2024/03/12 15:20:56;;;;;;;33.90;12.50;;;;;;;;;;4993003;28;20865;-76
2024/03/12 15:23:22;;;;;;;25.20;11.00;;;;;;;;;;4992441;28;20411;-74
2024/03/12 15:25:48;;;;;;;30.83;13.13;;;;;;;;;;4992733;28;20466;-74
2024/03/12 15:28:15;;;;;;;25.70;11.97;;;;;;;;;;4991707;28;20421;-74
2024/03/12 15:30:41;;;;;;;33.53;14.30;;;;;;;;;;4992457;28;20411;-74
2024/03/12 15:33:07;;;;;;;29.73;13.33;;;;;;;;;;4993545;28;20435;-74
2024/03/12 15:35:36;;;;;;;31.10;14.10;;;;;;;;;;4993061;28;20415;-74
2024/03/12 15:38:04;;;;;;;30.43;13.33;;;;;;;;;;4992924;28;20469;-75
2024/03/12 15:40:31;;;;;;;32.77;14.73;;;;;;;;;;4992847;28;20962;-75
2024/03/12 15:42:59;;;;;;;31.17;13.90;;;;;;;;;;4992889;28;20477;-74
2024/03/12 15:45:25;;;;;;;32.40;14.10;;;;;;;;;;4992692;28;20454;-75
2024/03/12 15:47:52;;;;;;;32.23;14.33;;;;;;;;;;4992891;28;20498;-75
2024/03/12 15:50:18;;;;;;;36.63;14.10;;;;;;;;;;4992927;28;20414;-76
2024/03/12 15:52:44;;;;;;;25.63;12.00;;;;;;;;;;4993250;28;20403;-75
2024/03/12 15:55:11;;;;;;;31.90;14.30;;;;;;;;;;4992563;28;20411;-76
2024/03/12 15:57:39;;;;;;;38.23;15.10;;;;;;;;;;4992677;28;20431;-74
2024/03/12 16:00:06;;;;;;;33.73;16.03;;;;;;;;;;5004264;28;20410;-74
2024/03/12 16:02:33;;;;;;;35.03;14.10;;;;;;;;;;4996844;28;20411;-75
2024/03/12 16:04:59;;;;;;;39.53;16.80;;;;;;;;;;4993662;28;20458;-74
2024/03/12 16:07:25;;;;;;;39.03;15.50;;;;;;;;;;4999606;28;20578;-75
2024/03/12 16:09:51;;;;;;;35.67;15.10;;;;;;;;;;4994066;28;20644;-75
2024/03/12 16:12:17;;;;;;;34.90;13.87;;;;;;;;;;4993424;28;20455;-75
2024/03/12 16:14:43;;;;;;;37.53;17.10;;;;;;;;;;4993619;28;20418;-75
2024/03/12 16:17:09;;;;;;;32.97;14.57;;;;;;;;;;4994168;28;20950;-75
2024/03/12 16:19:35;;;;;;;41.03;15.47;;;;;;;;;;4995519;28;20445;-75
2024/03/12 16:22:01;;;;;;;30.13;14.57;;;;;;;;;;4995835;28;20414;-75
2024/03/12 16:24:29;;;;;;;31.10;13.93;;;;;;;;;;4995174;28;20459;-75
2024/03/12 16:26:55;;;;;;;39.00;15.97;;;;;;;;;;4992722;28;20816;-75
2024/03/12 16:29:23;;;;;;;41.17;15.87;;;;;;;;;;4993462;28;20411;-75
2024/03/12 16:31:49;;;;;;;27.50;13.90;;;;;;;;;;4992678;28;20407;-75
2024/03/12 16:34:16;;;;;;;34.03;15.40;;;;;;;;;;4992654;28;20419;-75
2024/03/12 16:36:44;;;;;;;32.57;14.43;;;;;;;;;;4992122;28;20427;-75
2024/03/12 16:39:10;;;;;;;35.53;15.97;;;;;;;;;;4992196;28;20411;-75
2024/03/12 16:41:36;;;;;;;36.60;14.37;;;;;;;;;;4994374;28;20925;-76
2024/03/12 16:44:03;;;;;;;35.73;14.50;;;;;;;;;;4996150;28;20462;-76
2024/03/12 16:46:29;;;;;;;32.87;14.20;;;;;;;;;;4995927;28;20433;-75
2024/03/12 16:48:56;;;;;;;38.37;14.33;;;;;;;;;;4996676;28;20403;-75
2024/03/12 16:51:22;;;;;;;34.13;14.50;;;;;;;;;;4995849;28;20441;-74
2024/03/12 16:53:48;;;;;;;38.03;14.30;;;;;;;;;;4996355;28;20890;-75
2024/03/12 16:56:14;;;;;;;30.17;12.83;;;;;;;;;;4995420;28;20430;-74
2024/03/12 16:58:41;;;;;;;26.57;12.27;;;;;;;;;;4996114;28;20449;-74
2024/03/12 17:01:07;;;;;;;32.83;13.87;;;;;;;;;;4995850;28;20410;-74
2024/03/12 17:03:33;;;;;;;33.30;14.07;;;;;;;;;;4995532;28;20925;-75
2024/03/12 17:06:00;;;;;;;32.30;12.50;;;;;;;;;;4995226;28;20437;-75
2024/03/12 17:08:26;;;;;;;25.83;13.73;;;;;;;;;;4995367;28;20933;-75
2024/03/12 17:10:52;;;;;;;34.33;13.10;;;;;;;;;;4995616;28;20902;-75
2024/03/12 17:13:21;;;;;;;22.33;10.07;;;;;;;;;;4995751;28;20502;-75
2024/03/12 17:15:49;;;;;;;24.67;12.47;;;;;;;;;;4995261;28;20427;-75
2024/03/12 17:18:17;;;;;;;35.53;15.70;;;;;;;;;;4989259;28;20438;-75
2024/03/12 17:20:43;;;;;;;32.73;12.80;;;;;;;;;;4995709;28;20442;-75
2024/03/12 17:23:09;;;;;;;37.97;15.03;;;;;;;;;;4994336;28;20414;-75
2024/03/12 17:25:39;;;;;;;31.80;13.83;;;;;;;;;;4995291;28;20465;-74
2024/03/12 17:28:08;;;;;;;34.40;14.30;;;;;;;;;;4995523;28;20407;-74
2024/03/12 17:30:37;;;;;;;43.17;14.70;;;;;;;;;;4995432;28;20454;-75
2024/03/12 17:33:07;;;;;;;35.50;15.00;;;;;;;;;;4995870;28;20842;-75
2024/03/12 17:35:33;;;;;;;38.53;17.20;;;;;;;;;;4993512;28;20836;-77
2024/03/12 17:38:01;;;;;;;39.60;14.67;;;;;;;;;;4995156;28;20417;-73
2024/03/12 17:40:27;;;;;;;34.03;13.00;;;;;;;;;;4995241;28;20491;-73
2024/03/12 17:42:54;;;;;;;41.63;14.07;;;;;;;;;;4995555;28;20454;-74
2024/03/12 17:45:20;;;;;;;34.30;16.00;;;;;;;;;;4994825;28;20458;-74
2024/03/12 17:47:50;;;;;;;33.80;15.73;;;;;;;;;;4995025;28;20559;-74
2024/03/12 17:50:18;;;;;;;32.33;14.60;;;;;;;;;;4995082;28;20418;-74
2024/03/12 17:52:54;;;;;;;36.83;14.23;;;;;;;;;;4994377;28;20925;-74
2024/03/12 17:55:21;;;;;;;45.90;17.20;;;;;;;;;;4994812;28;20415;-74
2024/03/12 17:57:48;;;;;;;38.70;14.73;;;;;;;;;;4995101;28;20526;-74
2024/03/12 18:00:14;;;;;;;36.77;15.70;;;;;;;;;;4995219;28;20411;-73
2024/03/12 18:02:44;;;;;;;34.37;15.03;;;;;;;;;;4994916;28;20411;-74
2024/03/12 18:05:11;;;;;;;33.73;14.17;;;;;;;;;;4994575;28;20485;-74
2024/03/12 18:07:38;;;;;;;35.00;15.40;;;;;;;;;;4995111;28;20439;-74
2024/03/12 18:10:06;;;;;;;30.83;13.80;;;;;;;;;;4987500;28;20506;-74
2024/03/12 18:12:35;;;;;;;38.20;14.63;;;;;;;;;;4975825;28;20428;-74
2024/03/12 18:15:04;;;;;;;39.97;15.70;;;;;;;;;;4975434;28;20507;-75
2024/03/12 18:17:31;;;;;;;32.60;14.50;;;;;;;;;;4976985;28;20599;-74
2024/03/12 18:19:57;;;;;;;35.50;15.87;;;;;;;;;;4994919;28;20419;-75
2024/03/12 18:22:23;;;;;;;34.50;14.30;;;;;;;;;;4995243;28;20562;-74
2024/03/12 18:24:52;;;;;;;42.50;16.63;;;;;;;;;;4987206;28;20981;-75
2024/03/12 18:27:19;;;;;;;46.37;16.30;;;;;;;;;;4994274;28;20443;-74
2024/03/12 18:29:46;;;;;;;36.33;13.73;;;;;;;;;;4994481;28;20633;-75
2024/03/12 18:32:14;;;;;;;27.00;11.67;;;;;;;;;;4994286;28;20426;-73
2024/03/12 18:34:40;;;;;;;31.40;12.70;;;;;;;;;;4986674;28;20508;-74
2024/03/12 18:37:06;;;;;;;34.00;13.30;;;;;;;;;;4985411;28;20482;-75
2024/03/12 18:39:32;;;;;;;28.67;12.60;;;;;;;;;;4985916;28;20964;-75
2024/03/12 18:41:58;;;;;;;25.07;11.53;;;;;;;;;;4993729;28;20502;-75
2024/03/12 18:44:24;;;;;;;30.50;12.73;;;;;;;;;;4994968;28;20832;-74
2024/03/12 18:46:50;;;;;;;34.17;13.20;;;;;;;;;;4978177;28;20440;-74
2024/03/12 18:49:18;;;;;;;28.90;12.47;;;;;;;;;;4979239;28;20426;-74
2024/03/12 18:51:44;;;;;;;27.40;13.00;;;;;;;;;;4995155;28;20426;-74
2024/03/12 18:54:10;;;;;;;26.23;11.50;;;;;;;;;;4976258;28;20426;-75
2024/03/12 18:56:37;;;;;;;29.07;12.47;;;;;;;;;;4995051;28;20439;-76
2024/03/12 18:59:03;;;;;;;22.60;12.30;;;;;;;;;;4985605;28;20431;-76
2024/03/12 19:01:29;;;;;;;29.40;12.67;;;;;;;;;;4993731;28;20433;-75
2024/03/12 19:03:56;;;;;;;26.97;11.47;;;;;;;;;;4991455;28;20822;-76
2024/03/12 19:06:23;;;;;;;29.93;11.40;;;;;;;;;;4985591;28;20799;-75
2024/03/12 19:08:50;;;;;;;32.63;11.67;;;;;;;;;;4994924;28;20415;-76
2024/03/12 19:11:17;;;;;;;26.17;10.73;;;;;;;;;;4995301;28;20804;-76
2024/03/12 19:13:43;;;;;;;28.13;11.90;;;;;;;;;;4993854;28;20488;-77
2024/03/12 19:16:12;;;;;;;20.20;10.10;;;;;;;;;;4993121;28;20447;-76
2024/03/12 19:18:42;;;;;;;29.20;13.00;;;;;;;;;;4982721;28;20415;-75
2024/03/12 19:21:08;;;;;;;29.17;13.77;;;;;;;;;;4992814;28;20461;-75
2024/03/12 19:23:35;;;;;;;26.87;13.57;;;;;;;;;;4993453;28;20414;-76
2024/03/12 19:26:04;;;;;;;29.47;11.47;;;;;;;;;;4994007;28;20435;-76
2024/03/12 19:28:30;;;;;;;26.70;13.77;;;;;;;;;;4993594;28;20407;-75
2024/03/12 19:30:57;;;;;;;24.90;11.37;;;;;;;;;;4976168;28;20418;-75
2024/03/12 19:33:23;;;;;;;27.93;12.00;;;;;;;;;;4973719;28;20423;-75
2024/03/12 19:35:50;;;;;;;28.73;12.53;;;;;;;;;;4981437;28;20482;-76
2024/03/12 19:38:17;;;;;;;28.60;12.70;;;;;;;;;;4975624;28;20489;-75
2024/03/12 19:40:43;;;;;;;30.87;12.83;;;;;;;;;;4994654;28;20430;-76
2024/03/12 19:43:09;;;;;;;28.33;12.10;;;;;;;;;;4976716;28;20526;-76
2024/03/12 19:45:35;;;;;;;26.93;12.67;;;;;;;;;;4992677;28;20837;-76
2024/03/12 19:48:02;;;;;;;34.20;13.40;;;;;;;;;;4993082;28;20415;-75
2024/03/12 19:50:29;;;;;;;27.40;11.57;;;;;;;;;;4993362;28;20450;-75
2024/03/12 19:52:55;;;;;;;32.10;12.23;;;;;;;;;;4990115;28;20423;-74
2024/03/12 19:55:25;;;;;;;29.37;12.60;;;;;;;;;;4989048;28;20424;-76
2024/03/12 19:57:54;;;;;;;27.50;12.03;;;;;;;;;;4982357;28;20503;-75
2024/03/12 20:00:21;;;;;;;27.63;14.00;;;;;;;;;;4985284;28;20419;-75
2024/03/12 20:02:47;;;;;;;28.10;12.90;;;;;;;;;;4992882;28;20442;-75
2024/03/12 20:05:14;;;;;;;35.90;12.27;;;;;;;;;;4991988;28;20520;-73
2024/03/12 20:07:42;;;;;;;27.50;11.80;;;;;;;;;;4985035;28;20451;-73
2024/03/12 20:10:08;;;;;;;32.57;13.40;;;;;;;;;;4992790;28;20423;-72
2024/03/12 20:12:34;;;;;;;30.43;14.20;;;;;;;;;;4978972;28;20419;-70
2024/03/12 20:15:02;;;;;;;33.17;13.50;;;;;;;;;;4990494;28;20421;-75
2024/03/12 20:17:30;;;;;;;33.30;12.97;;;;;;;;;;4995169;23;20581;-75
2024/03/12 20:19:56;;;;;;;27.57;12.73;;;;;;;;;;4966675;28;20424;-75
2024/03/12 20:22:23;;;;;;;27.47;12.07;;;;;;;;;;4977650;28;20415;-75
2024/03/12 20:24:50;;;;;;;35.47;13.87;;;;;;;;;;4992422;28;20537;-75
2024/03/12 20:27:16;;;;;;;36.27;14.97;;;;;;;;;;4963979;28;20542;-76
2024/03/12 20:29:42;;;;;;;34.20;14.63;;;;;;;;;;4973904;28;20954;-76
2024/03/12 20:32:10;;;;;;;33.90;14.03;;;;;;;;;;4978571;28;20419;-76